Nearby METAR Reports

 

KKLS - Kelso Longveiw, Washington, USA
Distance from station: ESE 7mi, 11km
Updated: 2021-06-22 23:56
Overcast
Overcast
 Wind from WNW
Wind: WNW 6 mph , 9 km/h
Temperature: 59°F , 15°C
Dew Point: 55°F , 13°C
Humidity: 88%
Barometer: 29.90 inHg , 1012.5 hPa
Clouds: Overcast
Visibility: 10 miles , 16 km
Cloud details: Overcast 1200 ft
2021/06/23 06:56 KKLS 230656Z AUTO 30005KT 10SM OVC012 15/13 A2990 RMK AO2 SLP129 T01500128
KSPB - Scappoose, Oregon, USA
Distance from station: SSE 29mi, 46km
Updated: 2021-06-22 23:53
Clear
Clear
 Wind from N
Wind: N 10 mph , 17 km/h
Temperature: 63°F , 17°C
Dew Point: 55°F , 13°C
Humidity: 77%
Barometer: 29.85 inHg , 1010.8 hPa
Clouds: Clear
Visibility: 10 miles , 16 km
2021/06/23 06:53 KSPB 230653Z AUTO 01009KT 10SM CLR 17/13 A2985 RMK AO2 SLP106 T01720133
 
KCLS - Chehalis Central, Washington, USA
Distance from station: N 36mi, 58km
Updated: 2021-06-23 00:35
Few Clouds
Few Clouds
 Wind from calm
Wind: Calm
Temperature: 55°F , 13°C
Dew Point: 55°F , 13°C
Humidity: 100%
Barometer: 29.90 inHg , 1012.5 hPa
Clouds: Few Clouds
Visibility: 10 miles , 16 km
Cloud details: Few Clouds 1400 ft
2021/06/23 07:35 KCLS 230735Z AUTO 00000KT 10SM FEW014 13/13 A2990 RMK AO2
KAST - Astoria, Oregon, USA
Distance from station: W 41mi, 66km
Updated: 2021-06-22 23:55
Overcast
Overcast
 Wind from WNW
Wind: WNW 8 mph , 13 km/h
Temperature: 55°F , 13°C
Dew Point: 54°F , 12°C
Humidity: 94%
Barometer: 29.91 inHg , 1012.9 hPa
Clouds: Overcast
Visibility: 10 miles , 16 km
Cloud details: Overcast 1100 ft
2021/06/23 06:55 KAST 230655Z AUTO 29007KT 10SM OVC011 13/12 A2991 RMK AO2 SLP127 T01330117
 
KVUO - Vancouver, Washington, USA
Distance from station: SSE 42mi, 68km
Updated: 2021-06-22 23:53
Clear
Clear
 Wind from calm
Wind: Calm
Temperature: 66°F , 19°C
Dew Point: 54°F , 12°C
Humidity: 64%
Barometer: 29.85 inHg , 1010.8 hPa
Clouds: Clear
Visibility: 10 miles , 16 km
2021/06/23 06:53 KVUO 230653Z AUTO 00000KT 10SM CLR 19/12 A2985 RMK AO2 SLP107 T01890117
KHIO - Hillsboro/Portld, Oregon, USA
Distance from station: S 43mi, 69km
Updated: 2021-06-22 23:53
Clear
Clear
 Wind from NW
Wind: NW 3 mph , 6 km/h
Temperature: 63°F , 17°C
Dew Point: 55°F , 13°C
Humidity: 77%
Barometer: 29.84 inHg , 1010.5 hPa
Clouds: Clear
Visibility: 10 miles , 16 km
2021/06/23 06:53 KHIO 230653Z AUTO 31003KT 10SM CLR 17/13 A2984 RMK AO2 SLP102 T01720128
 
KPDX - Portland, Oregon, USA
Distance from station: SSE 44mi, 70km
Updated: 2021-06-22 23:53
Clear
Clear
 Wind from N
Wind: N 6 mph , 9 km/h
Temperature: 66°F , 19°C
Dew Point: 55°F , 13°C
Humidity: 68%
Barometer: 29.85 inHg , 1010.8 hPa
Clouds: Clear
Visibility: 10 miles , 16 km
2021/06/23 06:53 KPDX 230653Z 36005KT 10SM CLR 19/13 A2985 RMK AO2 SLP106 T01940133